createdAt,value
2023-03-31T00:02:01.841Z,95150.63
2023-03-31T00:04:32.250Z,95139.13
2023-03-31T00:07:01.868Z,95136.72
2023-03-31T00:09:33.445Z,95139.38
2023-03-31T00:12:02.832Z,95129.19
2023-03-31T00:14:32.269Z,95124.41
2023-03-31T00:17:02.253Z,95120.69
2023-03-31T00:19:33.194Z,95119.88
2023-03-31T00:22:03.026Z,95124.72
2023-03-31T00:24:35.612Z,95114.34
2023-03-31T00:27:06.528Z,95113.41
2023-03-31T00:29:36.214Z,95106.56
2023-03-31T00:32:06.222Z,95102.66
2023-03-31T00:34:35.738Z,95096.53
2023-03-31T00:37:05.654Z,95096.81
2023-03-31T00:39:38.287Z,95084.25
2023-03-31T00:42:08.887Z,95084.50
2023-03-31T00:45:21.717Z,95084.81
2023-03-31T00:47:55.830Z,95073.38
2023-03-31T00:50:30.551Z,95074.78
2023-03-31T00:53:04.962Z,95070.00
2023-03-31T00:55:44.549Z,95058.25
2023-03-31T00:58:15.351Z,95058.03
2023-03-31T01:00:44.760Z,95056.47
2023-03-31T01:03:14.315Z,95048.72
2023-03-31T01:05:50.178Z,95045.50
2023-03-31T01:08:24.337Z,95046.56
2023-03-31T01:11:01.582Z,95043.09
2023-03-31T01:13:32.653Z,95040.38
2023-03-31T01:16:03.412Z,95029.94
2023-03-31T01:18:35.004Z,95026.41
2023-03-31T01:21:47.314Z,95022.91
2023-03-31T01:25:19.984Z,95004.16
2023-03-31T01:28:22.874Z,95003.31
2023-03-31T01:31:32.687Z,94999.50
2023-03-31T01:35:03.861Z,94989.81
2023-03-31T01:38:25.615Z,94990.13
2023-03-31T01:41:23.903Z,94990.44
2023-03-31T01:44:10.239Z,94991.03
2023-03-31T01:46:48.192Z,94990.47
2023-03-31T01:49:27.175Z,94978.16
2023-03-31T01:52:06.052Z,94974.69
2023-03-31T01:54:47.163Z,94969.59
2023-03-31T01:57:23.610Z,94963.44
2023-03-31T02:00:04.206Z,94967.44
2023-03-31T02:02:49.816Z,94967.16
2023-03-31T02:05:25.785Z,94962.06
2023-03-31T02:08:01.580Z,94961.25
2023-03-31T02:10:34.392Z,94960.78
2023-03-31T02:13:08.104Z,94949.31
2023-03-31T02:15:44.113Z,94951.47
2023-03-31T02:18:20.347Z,94942.66
2023-03-31T02:20:53.192Z,94940.78
2023-03-31T02:23:29.595Z,94940.03
2023-03-31T02:26:05.966Z,94943.00
2023-03-31T02:28:38.329Z,94940.63
2023-03-31T02:31:27.132Z,94945.19
2023-03-31T02:33:57.153Z,94947.63
2023-03-31T02:36:26.920Z,94947.63
2023-03-31T02:39:01.796Z,94939.34
2023-03-31T02:41:31.404Z,94935.31
2023-03-31T02:44:02.383Z,94929.97
2023-03-31T02:46:33.047Z,94927.56
2023-03-31T02:49:08.690Z,94928.06
2023-03-31T02:52:21.793Z,94919.25
2023-03-31T02:55:17.067Z,94931.84
2023-03-31T02:58:51.039Z,94923.31
2023-03-31T03:01:52.617Z,94936.44
2023-03-31T03:05:04.339Z,94939.66
2023-03-31T03:07:45.490Z,94936.72
2023-03-31T03:10:28.934Z,94937.00
2023-03-31T03:13:04.420Z,94937.53
2023-03-31T03:15:40.756Z,94942.34
2023-03-31T03:18:13.310Z,94951.16
2023-03-31T03:20:48.473Z,94952.78
2023-03-31T03:23:18.716Z,94965.38
2023-03-31T03:25:48.099Z,94967.50
2023-03-31T03:28:18.103Z,94975.03
2023-03-31T03:30:47.492Z,94975.28
2023-03-31T03:33:18.417Z,94960.53
2023-03-31T03:35:47.889Z,94957.88
2023-03-31T03:38:17.305Z,94958.41
2023-03-31T03:40:49.567Z,94942.63
2023-03-31T03:43:19.543Z,94939.41
2023-03-31T03:45:49.797Z,94934.84
2023-03-31T03:48:21.332Z,94922.78
2023-03-31T03:50:52.679Z,94925.44
2023-03-31T03:53:22.516Z,94909.63
2023-03-31T03:55:51.903Z,94913.41
2023-03-31T03:58:21.501Z,94903.50
2023-03-31T04:00:51.018Z,94896.00
2023-03-31T04:03:21.999Z,94894.66
2023-03-31T04:05:51.634Z,94892.50
2023-03-31T04:08:21.504Z,94879.63
2023-03-31T04:10:51.869Z,94880.72
2023-03-31T04:13:21.569Z,94878.56
2023-03-31T04:15:51.005Z,94868.13
2023-03-31T04:18:27.542Z,94864.13
2023-03-31T04:21:04.653Z,94854.50
2023-03-31T04:23:35.034Z,94850.19
2023-03-31T04:26:08.816Z,94842.16
2023-03-31T04:28:42.602Z,94832.28
2023-03-31T04:31:15.531Z,94838.44
2023-03-31T04:33:47.966Z,94832.28
2023-03-31T04:36:18.604Z,94815.41
2023-03-31T04:38:54.665Z,94811.94
2023-03-31T04:41:27.519Z,94803.09
2023-03-31T04:43:57.227Z,94765.34
2023-03-31T04:46:27.932Z,94741.25
2023-03-31T04:48:59.215Z,94739.66
2023-03-31T04:51:28.665Z,94742.31
2023-03-31T04:53:58.029Z,94731.63
2023-03-31T04:56:27.673Z,94729.75
2023-03-31T04:58:57.109Z,94720.91
2023-03-31T05:01:26.556Z,94705.13
2023-03-31T05:03:55.988Z,94709.41
2023-03-31T05:06:27.293Z,94699.50
2023-03-31T05:08:56.765Z,94681.84
2023-03-31T05:11:26.381Z,94688.78
2023-03-31T05:13:55.954Z,94690.66
2023-03-31T05:16:25.570Z,94681.56
2023-03-31T05:18:56.052Z,94684.25
2023-03-31T05:21:30.447Z,94660.69
2023-03-31T05:24:00.006Z,94657.22
2023-03-31T05:26:29.459Z,94640.09
2023-03-31T05:28:59.010Z,94628.56
2023-03-31T05:31:28.625Z,94622.16
2023-03-31T05:33:57.994Z,94619.19
2023-03-31T05:36:28.824Z,94606.63
2023-03-31T05:38:58.252Z,94598.06
2023-03-31T05:41:27.954Z,94579.81
2023-03-31T05:43:57.336Z,94571.50
2023-03-31T05:46:27.396Z,94570.44
2023-03-31T05:48:57.361Z,94581.69
2023-03-31T05:51:28.224Z,94575.25
2023-03-31T05:53:57.708Z,94559.19
2023-03-31T05:56:27.770Z,94544.72
2023-03-31T05:58:57.667Z,94543.38
2023-03-31T06:01:27.148Z,94539.34
2023-03-31T06:03:57.778Z,94530.78
2023-03-31T06:06:28.875Z,94533.97
2023-03-31T06:08:58.292Z,94513.34
2023-03-31T06:11:28.085Z,94499.69
2023-03-31T06:13:57.608Z,94499.41
2023-03-31T06:16:28.897Z,94513.59
2023-03-31T06:18:58.519Z,94511.41
2023-03-31T06:21:29.446Z,94495.06
2023-03-31T06:24:00.305Z,94496.38
2023-03-31T06:26:30.041Z,94493.97
2023-03-31T06:28:59.567Z,94484.31
2023-03-31T06:31:29.168Z,94485.63
2023-03-31T06:33:58.628Z,94487.22
2023-03-31T06:36:29.533Z,94478.13
2023-03-31T06:38:58.979Z,94477.59
2023-03-31T06:41:28.552Z,94482.66
2023-03-31T06:43:58.082Z,94477.03
2023-03-31T06:46:27.643Z,94477.03
2023-03-31T06:48:57.242Z,94488.00
2023-03-31T06:51:28.898Z,94510.50
2023-03-31T06:53:59.088Z,94520.09
2023-03-31T06:56:28.474Z,94545.31
2023-03-31T06:58:57.905Z,94558.69
2023-03-31T07:01:27.342Z,94583.63
2023-03-31T07:03:56.771Z,94621.81
2023-03-31T07:06:26.383Z,94596.16
2023-03-31T07:08:57.162Z,94572.91
2023-03-31T07:11:26.811Z,94559.00
2023-03-31T07:13:56.533Z,94567.59
2023-03-31T07:16:26.145Z,94591.13
2023-03-31T07:18:59.508Z,94620.06
2023-03-31T07:21:28.895Z,94595.97
2023-03-31T07:23:59.992Z,94587.41
2023-03-31T07:26:29.378Z,94591.16
2023-03-31T07:28:59.267Z,94566.25
2023-03-31T07:31:28.738Z,94571.34
2023-03-31T07:33:58.240Z,94551.50
2023-03-31T07:36:27.646Z,94530.59
2023-03-31T07:38:59.138Z,94520.69
2023-03-31T07:41:28.808Z,94503.53
2023-03-31T07:43:58.155Z,94496.84
2023-03-31T07:46:30.366Z,94497.34
2023-03-31T07:49:02.179Z,94503.25
2023-03-31T07:51:31.745Z,94486.59
2023-03-31T07:54:02.815Z,94485.75
2023-03-31T07:56:32.266Z,94472.31
2023-03-31T07:59:01.787Z,94453.53
2023-03-31T08:01:31.258Z,94458.56
2023-03-31T08:04:01.233Z,94444.25
2023-03-31T08:06:30.752Z,94436.97
2023-03-31T08:09:01.927Z,94433.41
2023-03-31T08:11:31.392Z,94432.22
2023-03-31T08:14:01.103Z,94431.66
2023-03-31T08:16:30.658Z,94435.91
2023-03-31T08:19:00.148Z,94436.09
2023-03-31T08:21:30.209Z,94442.97
2023-03-31T08:23:59.776Z,94439.72
2023-03-31T08:26:31.911Z,94431.63
2023-03-31T08:29:01.758Z,94432.38
2023-03-31T08:31:31.509Z,94434.06
2023-03-31T08:34:02.723Z,94425.38
2023-03-31T08:36:32.176Z,94454.78
2023-03-31T08:39:01.796Z,94452.75
2023-03-31T08:41:56.548Z,94484.50
2023-03-31T08:44:35.748Z,94499.91
2023-03-31T08:47:11.986Z,94529.53
2023-03-31T08:49:47.865Z,94534.34
2023-03-31T08:52:25.642Z,94531.78
2023-03-31T08:55:00.819Z,94502.78
2023-03-31T08:57:44.309Z,94506.63
2023-03-31T09:00:18.939Z,94501.88
2023-03-31T09:02:59.515Z,94504.25
2023-03-31T09:06:00.941Z,94511.34
2023-03-31T09:08:37.815Z,94503.16
2023-03-31T09:11:16.459Z,94487.72
2023-03-31T09:14:19.482Z,94483.34
2023-03-31T09:16:57.888Z,94483.56
2023-03-31T09:19:38.608Z,94462.72
2023-03-31T09:22:17.761Z,94460.13
2023-03-31T09:24:59.950Z,94455.72
2023-03-31T09:27:34.837Z,94455.81
2023-03-31T09:30:15.965Z,94450.50
2023-03-31T09:32:47.976Z,94435.72
2023-03-31T09:35:22.492Z,94441.50
2023-03-31T09:37:53.766Z,94448.97
2023-03-31T09:40:26.412Z,94435.47
2023-03-31T09:43:01.988Z,94427.31
2023-03-31T09:45:34.772Z,94443.03
2023-03-31T09:48:10.742Z,94434.44
2023-03-31T09:50:48.979Z,94447.13
2023-03-31T09:53:28.319Z,94420.28
2023-03-31T09:56:04.725Z,94400.09
2023-03-31T09:58:43.639Z,94410.19
2023-03-31T10:01:17.224Z,94398.72
2023-03-31T10:03:52.256Z,94380.88
2023-03-31T10:06:22.515Z,94395.88
2023-03-31T10:08:56.415Z,94384.63
2023-03-31T10:11:27.236Z,94378.84
2023-03-31T10:14:03.974Z,94360.91
2023-03-31T10:16:45.178Z,94353.28
2023-03-31T10:19:22.397Z,94354.72
2023-03-31T10:22:01.107Z,94347.22
2023-03-31T10:24:40.965Z,94350.25
2023-03-31T10:27:24.615Z,94338.66
2023-03-31T10:29:56.430Z,94327.00
2023-03-31T10:32:30.646Z,94335.72
2023-03-31T10:35:07.516Z,94336.97
2023-03-31T10:37:38.727Z,94320.59
2023-03-31T10:40:21.410Z,94318.28
2023-03-31T10:43:16.380Z,94317.69
2023-03-31T10:45:51.191Z,94329.50
2023-03-31T10:48:29.058Z,94319.75
2023-03-31T10:51:06.311Z,94319.78
2023-03-31T10:53:43.751Z,94323.91
2023-03-31T10:56:41.231Z,94306.66
2023-03-31T10:59:32.761Z,94291.50
2023-03-31T11:02:46.672Z,94286.44
2023-03-31T11:05:23.478Z,94296.22
2023-03-31T11:08:18.661Z,94319.59
2023-03-31T11:11:12.217Z,94360.88
2023-03-31T11:13:52.720Z,94425.19
2023-03-31T11:16:34.442Z,94423.50
2023-03-31T11:19:21.533Z,94403.28
2023-03-31T11:22:09.780Z,94350.47
2023-03-31T11:25:18.346Z,94352.25
2023-03-31T11:28:42.153Z,94355.50
2023-03-31T11:31:32.812Z,94327.25
2023-03-31T11:34:25.777Z,94341.31
2023-03-31T11:37:31.938Z,94331.03
2023-03-31T11:40:46.200Z,94302.56
2023-03-31T11:43:23.450Z,94264.34
2023-03-31T11:46:00.422Z,94277.78
2023-03-31T11:48:43.042Z,94259.25
2023-03-31T11:51:23.086Z,94257.94
2023-03-31T11:53:58.388Z,94267.94
2023-03-31T11:56:37.774Z,94248.91
2023-03-31T11:59:08.668Z,94225.97
2023-03-31T12:01:45.760Z,94222.06
2023-03-31T12:04:33.660Z,94208.56
2023-03-31T12:07:22.835Z,94204.91
2023-03-31T12:10:05.636Z,94211.28
2023-03-31T12:12:41.404Z,94198.56
2023-03-31T12:15:20.992Z,94213.19
2023-03-31T12:18:00.512Z,94196.38
2023-03-31T12:20:37.837Z,94199.84
2023-03-31T12:23:17.184Z,94215.91
2023-03-31T12:25:56.626Z,94197.53
2023-03-31T12:28:27.846Z,94192.00
2023-03-31T12:30:58.719Z,94224.09
2023-03-31T12:33:33.243Z,94194.63
2023-03-31T12:36:22.004Z,94199.47
2023-03-31T12:39:12.445Z,94218.88
2023-03-31T12:42:04.566Z,94213.63
2023-03-31T12:44:53.456Z,94215.59
2023-03-31T12:47:43.427Z,94218.59
2023-03-31T12:50:36.878Z,94221.19
2023-03-31T12:53:21.983Z,94225.63
2023-03-31T12:55:57.733Z,94219.41
2023-03-31T12:58:47.222Z,94241.13
2023-03-31T13:01:21.492Z,94214.16
2023-03-31T13:03:56.314Z,94248.06
2023-03-31T13:06:53.713Z,94251.22
2023-03-31T13:09:47.512Z,94297.84
2023-03-31T13:12:25.487Z,94278.97
2023-03-31T13:15:00.295Z,94231.84
2023-03-31T13:17:33.837Z,94207.16
2023-03-31T13:20:37.709Z,94186.63
2023-03-31T13:23:20.330Z,94180.56
2023-03-31T13:25:52.044Z,94152.28
2023-03-31T13:28:44.784Z,94165.38
2023-03-31T13:31:17.358Z,94177.78
2023-03-31T13:33:57.402Z,94183.97
2023-03-31T13:37:18.739Z,94188.91
2023-03-31T13:40:25.249Z,94201.47
2023-03-31T13:43:58.394Z,94218.59
2023-03-31T13:47:13.105Z,94230.38
2023-03-31T13:50:40.959Z,94220.38
2023-03-31T13:53:32.992Z,94202.84
2023-03-31T13:56:24.541Z,94175.13
2023-03-31T13:59:30.303Z,94164.28
2023-03-31T14:02:37.789Z,94171.41
2023-03-31T14:05:32.017Z,94189.41
2023-03-31T14:08:12.094Z,94197.88
2023-03-31T14:10:44.453Z,94214.78
2023-03-31T14:13:18.586Z,94204.28
2023-03-31T14:15:53.323Z,94226.78
2023-03-31T14:18:30.236Z,94225.34
2023-03-31T14:21:22.752Z,94237.25
2023-03-31T14:24:07.542Z,94235.44
2023-03-31T14:26:56.301Z,94264.94
2023-03-31T14:29:37.485Z,94306.88
2023-03-31T14:32:23.902Z,94333.75
2023-03-31T14:35:26.637Z,94327.94
2023-03-31T14:37:57.363Z,94326.19
2023-03-31T14:40:27.345Z,94324.38
2023-03-31T14:42:56.831Z,94336.19
2023-03-31T14:45:31.483Z,94273.41
2023-03-31T14:48:13.653Z,94267.59
2023-03-31T14:50:47.717Z,94273.47
2023-03-31T14:53:18.334Z,94267.59
2023-03-31T14:55:57.982Z,94246.63
2023-03-31T14:58:34.680Z,94237.31
2023-03-31T15:01:07.926Z,94238.44
2023-03-31T15:03:42.065Z,94221.22
2023-03-31T15:06:12.813Z,94240.38
2023-03-31T15:08:42.655Z,94219.25
2023-03-31T15:11:19.580Z,94216.78
2023-03-31T15:14:04.517Z,94212.34
2023-03-31T15:16:43.040Z,94217.63
2023-03-31T15:19:18.008Z,94209.50
2023-03-31T15:21:56.432Z,94209.72
2023-03-31T15:24:25.948Z,94221.38
2023-03-31T15:27:02.000Z,94222.34
2023-03-31T15:29:39.171Z,94213.56
2023-03-31T15:32:17.352Z,94214.25
2023-03-31T15:34:47.909Z,94231.06
2023-03-31T15:37:27.748Z,94227.34
2023-03-31T15:40:00.772Z,94234.03
2023-03-31T15:42:30.779Z,94229.94
2023-03-31T15:45:41.589Z,94222.59
2023-03-31T15:48:22.256Z,94234.03
2023-03-31T15:50:53.236Z,94227.25
2023-03-31T15:53:31.854Z,94225.38
2023-03-31T15:56:01.733Z,94225.75
2023-03-31T15:59:00.687Z,94231.59
2023-03-31T16:01:34.707Z,94217.53
2023-03-31T16:04:10.465Z,94222.81
2023-03-31T16:06:47.170Z,94223.91
2023-03-31T16:09:23.981Z,94215.34
2023-03-31T16:11:57.487Z,94222.50
2023-03-31T16:14:34.143Z,94226.09
2023-03-31T16:17:09.220Z,94226.38
2023-03-31T16:19:44.544Z,94231.56
2023-03-31T16:22:19.744Z,94238.47
2023-03-31T16:24:52.045Z,94247.53
2023-03-31T16:27:21.721Z,94250.09
2023-03-31T16:29:51.141Z,94252.38
2023-03-31T16:32:21.445Z,94253.19
2023-03-31T16:34:57.432Z,94253.69
2023-03-31T16:37:27.511Z,94247.72
2023-03-31T16:39:59.116Z,94281.09
2023-03-31T16:42:28.622Z,94320.16
2023-03-31T16:45:12.731Z,94350.41
2023-03-31T16:47:45.877Z,94338.03
2023-03-31T16:50:16.100Z,94375.91
2023-03-31T16:52:47.180Z,94339.16
2023-03-31T16:55:18.276Z,94331.44
2023-03-31T16:57:48.454Z,94312.97
2023-03-31T17:00:19.190Z,94331.44
2023-03-31T17:02:48.640Z,94339.03
2023-03-31T17:05:18.290Z,94332.94
2023-03-31T17:07:48.271Z,94335.69
2023-03-31T17:10:19.293Z,94326.63
2023-03-31T17:12:48.927Z,94325.59
2023-03-31T17:15:18.674Z,94336.84
2023-03-31T17:17:48.247Z,94324.28
2023-03-31T17:20:18.259Z,94323.50
2023-03-31T17:22:47.740Z,94306.13
2023-03-31T17:25:19.869Z,94318.16
2023-03-31T17:27:49.650Z,94315.22
2023-03-31T17:30:19.620Z,94299.72
2023-03-31T17:32:50.675Z,94312.84
2023-03-31T17:35:22.458Z,94304.91
2023-03-31T17:37:54.370Z,94304.13
2023-03-31T17:40:27.518Z,94306.28
2023-03-31T17:42:57.543Z,94298.56
2023-03-31T17:45:26.960Z,94301.25
2023-03-31T17:47:56.827Z,94322.34
2023-03-31T17:50:27.179Z,94304.72
2023-03-31T17:52:58.395Z,94307.06
2023-03-31T17:55:29.547Z,94322.50
2023-03-31T17:57:59.000Z,94320.09
2023-03-31T18:00:28.437Z,94323.03
2023-03-31T18:02:57.887Z,94334.50
2023-03-31T18:05:27.357Z,94340.97
2023-03-31T18:07:57.239Z,94337.75
2023-03-31T18:10:28.061Z,94333.03
2023-03-31T18:12:59.198Z,94334.41
2023-03-31T18:15:28.690Z,94335.44
2023-03-31T18:17:59.882Z,94337.84
2023-03-31T18:20:29.373Z,94335.47
2023-03-31T18:22:58.807Z,94346.44
2023-03-31T18:25:29.704Z,94326.28
2023-03-31T18:27:59.171Z,94334.31
2023-03-31T18:30:28.757Z,94335.94
2023-03-31T18:35:27.978Z,94347.16
2023-03-31T18:37:57.507Z,94356.03
2023-03-31T18:40:27.340Z,94350.41
2023-03-31T18:42:58.221Z,94349.06
2023-03-31T18:45:28.322Z,94352.47
2023-03-31T18:47:57.973Z,94353.00
2023-03-31T18:50:27.597Z,94369.09
2023-03-31T18:52:57.081Z,94355.91
2023-03-31T18:55:26.760Z,94368.78
2023-03-31T18:57:58.001Z,94363.25
2023-03-31T19:00:27.452Z,94358.69
2023-03-31T19:02:57.222Z,94358.09
2023-03-31T19:05:27.602Z,94376.28
2023-03-31T19:07:57.086Z,94375.94
2023-03-31T19:10:26.581Z,94367.88
2023-03-31T19:12:58.347Z,94371.13
2023-03-31T19:15:28.400Z,94366.00
2023-03-31T19:17:58.152Z,94356.66
2023-03-31T19:20:27.693Z,94353.22
2023-03-31T19:22:57.186Z,94356.09
2023-03-31T19:25:27.226Z,94350.47
2023-03-31T19:27:58.207Z,94354.69
2023-03-31T19:30:28.192Z,94362.72
2023-03-31T19:32:57.800Z,94360.28
2023-03-31T19:35:27.534Z,94361.38
2023-03-31T19:37:57.594Z,94349.28
2023-03-31T19:40:27.875Z,94346.63
2023-03-31T19:42:58.736Z,94345.78
2023-03-31T19:45:28.352Z,94345.00
2023-03-31T19:47:58.198Z,94335.91
2023-03-31T19:50:27.699Z,94349.78
2023-03-31T19:52:57.116Z,94345.75
2023-03-31T19:55:27.141Z,94349.72
2023-03-31T19:57:58.060Z,94344.97
2023-03-31T20:00:48.696Z,94336.63
2023-03-31T20:03:18.308Z,94336.06
2023-03-31T20:05:48.023Z,94339.72
2023-03-31T20:08:17.504Z,94344.50
2023-03-31T20:10:47.065Z,94343.94
2023-03-31T20:13:18.392Z,94353.06
2023-03-31T20:15:48.039Z,94340.19
2023-03-31T20:18:17.960Z,94325.56
2023-03-31T20:20:47.776Z,94334.91
2023-03-31T20:23:17.527Z,94322.03
2023-03-31T20:25:47.290Z,94326.44
2023-03-31T20:28:18.032Z,94311.81
2023-03-31T20:30:47.484Z,94313.44
2023-03-31T20:33:17.571Z,94317.19
2023-03-31T20:35:48.329Z,94312.88
2023-03-31T20:38:17.933Z,94310.97
2023-03-31T20:40:49.130Z,94311.31
2023-03-31T20:43:19.942Z,94319.03
2023-03-31T20:45:57.691Z,94316.53
2023-03-31T20:48:27.694Z,94320.34
2023-03-31T20:50:57.360Z,94309.91
2023-03-31T20:53:27.213Z,94325.66
2023-03-31T20:55:57.219Z,94318.41
2023-03-31T20:58:28.563Z,94313.75
2023-03-31T21:00:59.232Z,94333.97
2023-03-31T21:03:28.831Z,94333.41
2023-03-31T21:06:01.887Z,94333.91
2023-03-31T21:08:31.375Z,94336.59
2023-03-31T21:11:01.696Z,94328.94
2023-03-31T21:13:33.261Z,94342.16
2023-03-31T21:16:04.357Z,94351.78
2023-03-31T21:18:37.269Z,94346.38
2023-03-31T21:21:11.142Z,94351.50
2023-03-31T21:23:41.116Z,94347.78
2023-03-31T21:26:14.906Z,94342.50
2023-03-31T21:28:46.791Z,94342.59
2023-03-31T21:31:18.896Z,94353.28
2023-03-31T21:33:48.766Z,94350.47
2023-03-31T21:36:22.570Z,94369.47
2023-03-31T21:38:55.674Z,94364.13
2023-03-31T21:41:28.271Z,94367.56
2023-03-31T21:44:02.247Z,94360.34
2023-03-31T21:46:34.528Z,94365.28
2023-03-31T21:49:04.519Z,94361.19
2023-03-31T21:51:33.955Z,94366.41
2023-03-31T21:54:03.439Z,94369.09
2023-03-31T21:56:32.926Z,94362.13
2023-03-31T21:59:04.343Z,94366.44
2023-03-31T22:01:33.997Z,94357.56
2023-03-31T22:04:03.576Z,94346.34
2023-03-31T22:06:34.455Z,94358.66
2023-03-31T22:09:04.221Z,94358.97
2023-03-31T22:11:33.610Z,94358.72
2023-03-31T22:14:04.474Z,94361.66
2023-03-31T22:16:34.088Z,94366.75
2023-03-31T22:19:03.794Z,94363.03
2023-03-31T22:21:43.847Z,94369.97
2023-03-31T22:24:14.371Z,94365.19
2023-03-31T22:26:43.921Z,94382.31
2023-03-31T22:29:17.226Z,94372.16
2023-03-31T22:31:46.528Z,94389.53
2023-03-31T22:34:18.895Z,94385.34
2023-03-31T22:36:48.442Z,94397.91
2023-03-31T22:39:18.592Z,94393.38
2023-03-31T22:41:50.492Z,94395.69
2023-03-31T22:44:21.720Z,94410.97
2023-03-31T22:46:51.537Z,94389.03
2023-03-31T22:49:21.018Z,94405.88
2023-03-31T22:51:50.487Z,94406.16
2023-03-31T22:54:19.870Z,94394.97
2023-03-31T22:56:49.466Z,94398.19
2023-03-31T22:59:20.316Z,94390.75
2023-03-31T23:01:52.879Z,94386.19
2023-03-31T23:04:23.100Z,94396.09
2023-03-31T23:06:52.793Z,94383.25
2023-03-31T23:09:23.653Z,94385.69
2023-03-31T23:11:53.166Z,94368.00
2023-03-31T23:14:24.020Z,94369.38
2023-03-31T23:16:53.607Z,94384.09
2023-03-31T23:19:23.095Z,94372.31
2023-03-31T23:21:52.565Z,94373.09
2023-03-31T23:24:22.957Z,94377.69
2023-03-31T23:26:52.382Z,94365.47
2023-03-31T23:29:23.162Z,94368.13
2023-03-31T23:31:52.793Z,94372.22
2023-03-31T23:34:22.251Z,94367.13
2023-03-31T23:36:52.748Z,94369.53
2023-03-31T23:39:22.617Z,94377.03
2023-03-31T23:41:52.226Z,94369.88
2023-03-31T23:44:23.196Z,94358.94
2023-03-31T23:46:52.612Z,94373.94
2023-03-31T23:49:22.229Z,94361.91
2023-03-31T23:51:51.875Z,94355.78
2023-03-31T23:54:21.580Z,94348.03
2023-03-31T23:56:51.230Z,94364.34
2023-03-31T23:59:20.853Z,94363.25
